American Falls, ID (83211)

10:00 AM MDT on September 02, 2014 (GMT -0600)
ITD Coldwater ID US | Change Station
CLOSE
Current Station
Personal Weather Station
Location: American Falls, ID
Elevation: 4298 ft
Nearby Weather Stations

Elev 4298 ft 42.61 °N, 113.15 °W | Updated 45 minutes ago

Clear
Clear
58 °F
Feels Like 58 °F
N
3
Wind Variable Wind from NNE
Gusts 4.0 mph

Today
High -- | Low -- °F
--% Chance of Precip.
Yesterday
High -- | Low -- °F
Precip. -- in
6:57 AM 8:04 PM
First Quarter, 52% visible
Pressure 29.98 in
Visibility 10.0 miles
Clouds Clear
Dew Point 41 °F
Humidity 52%
Rainfall 0.00 in
Snow Depth Not available.
UV 4 out of 12
Pollen 8.10 out of 12
PM2.5 Good
Flu Activity Not available.
METAR KPIH 021553Z 00000KT 10SM CLR 17/05 A3006 RMK AO2 SLP150 T01670050

More Conditions Fewer Conditions

Pressure 29.98 in
Visibility 10.0 miles
Clouds Clear
Dew Point 41 °F
Humidity 52%
Rainfall 0.00 in
Snow Depth Not available.
UV 4 out of 12
Pollen 8.10 out of 12
PM2.5 Good
Flu Activity Not available.
METAR KPIH 021553Z 00000KT 10SM CLR 17/05 A3006 RMK AO2 SLP150 T01670050

More Conditions Fewer Conditions

10-Day Weather Forecast

Almanac

Astronomy

Sep. 02, 2014 Rise Set
Actual Time 6:57 AM MDT 8:04 PM MDT
Civil Twilight 6:28 AM MDT 8:33 PM MDT
Nautical Twilight 5:53 AM MDT 9:07 PM MDT
Astronomical Twilight 5:17 AM MDT 9:44 PM MDT
Moon 2:55 PM MDT 12:00 AM MDT
Length of Visible Light 14h 04m
Length of Day
13h 06m
Tomorrow will be 2m 48s shorter.
First Quarter, 52% of the Moon is Illuminated
Today
First Quarter
Sep 8
Full
Sep 15
Last Quarter
Sep 24
New
Oct 1
First Quarter

Today's Extremes

State Highs State Lows

Community

WunderPhotos

Upload Photos

1,749,706 photos uploaded!

Nearby

Air Quality

  Air Quality AQ Index Pollutant
Yesterday Good
PM10
Current Good
PM2.5
Tuesday Good
PM2.5

Snow Depth

Station Depth Elevation
Wildhorse Divide 0 in 6490 ft
Oxford Spring 0 in 6740 ft
Sheep Mountain 0 in 6570 ft
Emigrant Summit 1 in 7390 ft
Swede Peak 1 in 7640 ft

Earthquake Activity

City Distance Mag. Time & Date
No recent earthquake activity has been reported nearby.
Minimum magnitude displayed is 2.5.

Coastal Water Temperatures

Place Temperature
No Stations Reporting

Nearby Weather Stations